Lemolo, Washington
Current Conditions -  °F | °C
As of 5:35 PM on Friday 21 Nov 2014 (Local Time) from KPWT Reporting Station
Overcast Overcast  
Wind Chill: 43°   Ceiling: 600
Heat Index: 48°   Visibility: 9mi
Dew Point: 48°   Wind: 14mph
Humidity: 100%   Direction: 190°S
Pressure: 29.33"   Gusts: NA
Location:  47.7571°N, 122.623°W
Report Text: KPWT 220135Z AUTO 19012KT 9SM BKN006 OVC012 09/09 A2933 RMK AO1 P0004
Loading
Personal Weather Stations






























Interactive Weather Map New forecast layout! Learn more

10-Day Weather Forecast

Advertisements
Track Severe Weather on mobile